Brunswick Golden Isles Airport
KBQK : now visible

Airfield :











YOU CAN JOIN US ON...

 
LOGIN :

Register | Disclaimer

   EN    FR    IT 

 









Legend :    VFR   Marginal VFR   IFR   Intensive IFR   Very Intensive IFR
Visi :
Ceiling :
>= 8 km
>= 3000ft
5 to 8 km
1000 to 3000 ft
1500m to 5 km
500 to 1000 ft
800 to 1500m
200 to 500 ft
< 800m
< 200 ft
Symbols :   Thunderstorms  Fog  Heavy snow  Heavy precipitations  Wind > 20 kt






- Airport Elevation : 26 ft
- IATA code : BQK


KBQK - Brunswick Golden Isles

CURRENT METAR :
  • 201155Z AUTO 02004KT 10SM SCT010 20/20 A3010 RMK AO2 T02040197 10222 20194

EXPIRED METARs :
  • 201135Z AUTO 02005KT 10SM BKN010 20/19 A3010 RMK AO2 T02020194
  • 201115Z AUTO 03004KT 10SM SCT023 20/19 A3010 RMK AO2 T02010192
  • 201055Z AUTO 01006KT 10SM SCT033 20/19 A3010 RMK AO2 T02010192
  • 201035Z AUTO 36003KT 10SM BKN033 20/19 A3010 RMK AO2 T01990191
  • 201015Z AUTO 35003KT 10SM CLR 20/19 A3010 RMK AO2 T01970189
  • 200955Z AUTO 00000KT 10SM CLR 20/19 A3010 RMK AO2 T01980190
  • 200935Z AUTO 01004KT 10SM SCT016 SCT024 SCT035 20/19 A3009 RMK AO2 T01990190
  • 200915Z AUTO 03003KT 10SM SCT016 BKN037 20/19 A3010 RMK AO2 T02010191

TAF N/A
KZJX FIR / North America



MET'MAP, your aeronautical weather chart ! - Copyright ORBIFLY December 2007 - Disclaimer

ORBIFLY MET'MAP TEAM :

Programming & Development : Alexandra Zaïnal
Concept & original design : Baudouin d'Aumeries
Assistance for programming : Marc-Olivier Méhu
Technical & hardware support : Manuel Goepfert

Contact : metmap@orbifly.com




SOURCES & CREDITS :

   NOAA       Earth
Advisory